Time;durP1;ratioP1;P1;durP2;ratioP2;P2;SDS_P1;SDS_P2;PMS_P1;PMS_P2;Temp;Humidity;BMP_temperature;BMP_pressure;BME280_temperature;BME280_humidity;BME280_pressure;Samples;Min_cycle;Max_cycle;Signal;HPM_P1;HPM_P2
2023/02/12 00:00:32;;;;;;;7.28;5.80;;;10.80;81.00;;;;;;4842766;29;20562;-82
2023/02/12 00:02:58;;;;;;;6.07;5.05;;;10.80;81.00;;;;;;4847516;29;20041;-83
2023/02/12 00:05:24;;;;;;;6.85;5.22;;;10.80;81.00;;;;;;4839073;29;20398;-82
2023/02/12 00:07:49;;;;;;;6.57;5.15;;;10.80;81.10;;;;;;4863884;29;20036;-84
2023/02/12 00:10:16;;;;;;;7.60;5.68;;;10.80;81.10;;;;;;4827208;29;20053;-81
2023/02/12 00:12:41;;;;;;;6.75;5.53;;;10.80;81.00;;;;;;4864088;29;20064;-81
2023/02/12 00:15:08;;;;;;;6.55;5.35;;;10.70;81.00;;;;;;4863749;29;20076;-82
2023/02/12 00:17:34;;;;;;;7.47;5.38;;;10.80;81.00;;;;;;4831894;29;20502;-82
2023/02/12 00:19:59;;;;;;;6.95;5.55;;;10.80;81.00;;;;;;4861160;29;20120;-82
2023/02/12 00:22:26;;;;;;;7.05;5.43;;;10.80;81.10;;;;;;4860896;29;20109;-82
2023/02/12 00:24:52;;;;;;;6.65;5.10;;;10.80;81.00;;;;;;4851063;29;20130;-82
2023/02/12 00:27:18;;;;;;;6.65;4.88;;;10.80;81.10;;;;;;4858545;29;20479;-82
2023/02/12 00:29:44;;;;;;;6.75;5.22;;;10.70;81.00;;;;;;4860396;29;20124;-82
2023/02/12 00:32:10;;;;;;;6.50;5.20;;;10.70;81.00;;;;;;4857121;29;20658;-82
2023/02/12 00:34:36;;;;;;;6.97;5.28;;;10.70;81.00;;;;;;4830692;29;20545;-82
2023/02/12 00:37:02;;;;;;;6.93;5.03;;;10.70;81.00;;;;;;4842397;29;20025;-83
2023/02/12 00:39:28;;;;;;;6.55;5.28;;;10.70;81.00;;;;;;4862010;29;20033;-84
2023/02/12 00:41:53;;;;;;;7.10;5.22;;;10.70;81.10;;;;;;4833675;29;20054;-82
2023/02/12 00:44:19;;;;;;;6.93;5.35;;;10.80;81.10;;;;;;4865786;29;20063;-82
2023/02/12 00:46:45;;;;;;;6.38;5.25;;;10.70;81.00;;;;;;4852345;29;20132;-83
2023/02/12 00:49:11;;;;;;;6.72;5.35;;;10.70;81.10;;;;;;4866753;29;20037;-83
2023/02/12 00:51:36;;;;;;;6.50;5.20;;;10.70;81.10;;;;;;4824092;29;20040;-82
2023/02/12 00:54:02;;;;;;;7.50;5.65;;;10.70;81.10;;;;;;4835575;29;20061;-82
2023/02/12 00:56:28;;;;;;;6.63;5.30;;;10.70;81.10;;;;;;4868262;29;20057;-83
2023/02/12 00:58:54;;;;;;;6.70;5.25;;;10.70;81.20;;;;;;4822249;29;20478;-83
2023/02/12 01:01:20;;;;;;;6.65;5.13;;;10.70;81.10;;;;;;4862919;29;20466;-82
2023/02/12 01:03:45;;;;;;;6.00;4.93;;;10.70;81.10;;;;;;4824001;29;20414;-83
2023/02/12 01:06:11;;;;;;;5.90;4.90;;;10.70;81.10;;;;;;4866290;29;20101;-82
2023/02/12 01:08:37;;;;;;;7.43;5.50;;;10.70;81.10;;;;;;4851768;29;20480;-82
2023/02/12 01:11:04;;;;;;;6.80;5.20;;;10.70;81.10;;;;;;4851958;29;20030;-83
2023/02/12 01:13:32;;;;;;;6.43;5.28;;;10.70;81.10;;;;;;4838211;29;20042;-83
2023/02/12 01:16:07;;;;;;;6.45;5.25;;;10.70;81.20;;;;;;4836188;29;20092;-82
2023/02/12 01:18:35;;;;;;;7.15;5.47;;;10.60;81.10;;;;;;4869586;29;20366;-82
2023/02/12 01:21:01;;;;;;;6.43;5.45;;;10.60;81.10;;;;;;4867024;29;20057;-82
2023/02/12 01:23:27;;;;;;;6.80;5.25;;;10.60;81.10;;;;;;4836299;29;20059;-82
2023/02/12 01:25:53;;;;;;;7.15;5.45;;;10.60;81.20;;;;;;4865434;29;20526;-82
2023/02/12 01:28:19;;;;;;;6.82;5.22;;;10.60;81.10;;;;;;4849496;29;20037;-82
2023/02/12 01:30:44;;;;;;;6.80;5.20;;;10.60;81.10;;;;;;4880992;29;20136;-82
2023/02/12 01:33:10;;;;;;;7.13;5.63;;;10.60;81.20;;;;;;4867440;29;20041;-82
2023/02/12 01:35:37;;;;;;;7.15;5.20;;;10.60;81.20;;;;;;4848910;29;20450;-83
2023/02/12 01:38:03;;;;;;;7.20;5.68;;;10.60;81.20;;;;;;4850002;29;20030;-82
2023/02/12 01:40:28;;;;;;;7.53;5.80;;;10.60;81.20;;;;;;4852314;29;20025;-82
2023/02/12 01:42:54;;;;;;;7.90;6.07;;;10.60;81.20;;;;;;4854217;29;20307;-82
2023/02/12 01:45:35;;;;;;;7.18;5.65;;;10.50;81.10;;;;;;4867146;29;20039;-82
2023/02/12 01:48:01;;;;;;;7.18;5.50;;;10.50;81.20;;;;;;4852403;29;20033;-83
2023/02/12 01:50:28;;;;;;;6.60;5.38;;;10.50;81.10;;;;;;4851549;29;20086;-82
2023/02/12 01:52:56;;;;;;;6.72;5.35;;;10.50;81.10;;;;;;4850257;29;20037;-83
2023/02/12 01:55:23;;;;;;;7.72;6.00;;;10.50;81.10;;;;;;4848481;29;20090;-82
2023/02/12 01:57:49;;;;;;;7.57;5.97;;;10.50;81.10;;;;;;4871987;29;20120;-83
2023/02/12 02:00:21;;;;;;;7.22;5.75;;;10.50;81.10;;;;;;4863197;29;20494;-82
2023/02/12 02:02:53;;;;;;;8.25;6.30;;;10.50;81.10;;;;;;4858848;29;20065;-83
2023/02/12 02:06:09;;;;;;;7.93;5.82;;;10.50;81.10;;;;;;4866845;29;20025;-82
2023/02/12 02:08:38;;;;;;;8.43;6.20;;;10.50;81.20;;;;;;4840444;29;20049;-83
2023/02/12 02:14:31;;;;;;;7.43;5.82;;;10.50;81.10;;;;;;4856418;29;20084;-81
2023/02/12 02:16:36;;;;;;;7.80;6.00;;;10.40;81.10;;;;;;4856351;29;20128;-82
2023/02/12 02:19:14;;;;;;;8.18;6.40;;;10.40;81.10;;;;;;4834681;29;20514;-82
2023/02/12 02:22:02;;;;;;;8.27;6.28;;;10.40;81.10;;;;;;4864650;29;21425;-83
2023/02/12 02:24:55;;;;;;;7.45;5.90;;;10.40;81.10;;;;;;4878972;29;20033;-83
2023/02/12 02:27:48;;;;;;;8.25;6.20;;;10.40;81.10;;;;;;4866150;29;20033;-82
2023/02/12 02:30:30;;;;;;;8.77;6.82;;;10.40;81.10;;;;;;4852989;29;20065;-82
2023/02/12 02:33:17;;;;;;;7.55;6.10;;;10.30;81.10;;;;;;4863158;29;20084;-81
2023/02/12 02:35:55;;;;;;;8.38;6.60;;;10.30;81.10;;;;;;4855391;29;20074;-83
2023/02/12 02:38:43;;;;;;;9.40;6.75;;;10.30;81.10;;;;;;4861115;29;20083;-83
2023/02/12 02:41:40;;;;;;;7.55;6.07;;;10.30;81.20;;;;;;4841070;29;20060;-82
2023/02/12 02:44:16;;;;;;;7.95;6.15;;;10.30;81.20;;;;;;4839981;29;20084;-82
2023/02/12 02:46:49;;;;;;;7.85;6.30;;;10.30;81.10;;;;;;4861644;29;20026;-83
2023/02/12 02:49:28;;;;;;;8.93;6.85;;;10.20;81.10;;;;;;4868123;29;20033;-82
2023/02/12 02:52:08;;;;;;;8.25;6.28;;;10.20;81.20;;;;;;4864787;29;20044;-82
2023/02/12 02:54:47;;;;;;;8.55;6.30;;;10.20;81.20;;;;;;4865246;29;20063;-82
2023/02/12 02:57:42;;;;;;;8.25;6.63;;;10.20;81.20;;;;;;4865002;29;20850;-82
2023/02/12 03:00:24;;;;;;;7.82;5.93;;;10.20;81.20;;;;;;4859747;29;20069;-82
2023/02/12 03:02:58;;;;;;;9.10;7.13;;;10.20;81.10;;;;;;4866492;29;20033;-83
2023/02/12 03:05:36;;;;;;;8.23;6.68;;;10.20;81.20;;;;;;4848079;29;20044;-82
2023/02/12 03:08:12;;;;;;;9.15;6.95;;;10.20;81.20;;;;;;4859717;29;20037;-82
2023/02/12 03:10:44;;;;;;;8.45;6.63;;;10.10;81.10;;;;;;4855007;29;20037;-82
2023/02/12 03:13:17;;;;;;;8.55;6.78;;;10.20;81.20;;;;;;4868988;29;20068;-81
2023/02/12 03:15:56;;;;;;;9.10;7.03;;;10.20;81.20;;;;;;4862904;29;20029;-82
2023/02/12 03:18:27;;;;;;;8.45;7.07;;;10.10;81.20;;;;;;4858012;29;20025;-81
2023/02/12 03:21:08;;;;;;;9.27;6.93;;;10.10;81.10;;;;;;4862618;29;20026;-81
2023/02/12 03:23:46;;;;;;;8.18;6.47;;;10.10;81.10;;;;;;4861555;29;20815;-82
2023/02/12 03:26:19;;;;;;;8.80;6.90;;;10.10;81.10;;;;;;4859140;29;20025;-81
2023/02/12 03:28:45;;;;;;;8.02;6.88;;;10.10;81.10;;;;;;4861817;29;20527;-81
2023/02/12 03:31:24;;;;;;;8.10;7.07;;;10.10;81.20;;;;;;4875461;29;20044;-81
2023/02/12 03:33:58;;;;;;;8.77;6.97;;;10.10;81.20;;;;;;4860434;29;20577;-82
2023/02/12 03:36:46;;;;;;;8.82;6.88;;;10.10;81.20;;;;;;4856262;29;20032;-82
2023/02/12 03:39:20;;;;;;;8.82;7.05;;;10.00;81.20;;;;;;4856632;29;20049;-81
2023/02/12 03:42:00;;;;;;;9.27;6.75;;;10.10;81.20;;;;;;4860879;29;20077;-82
2023/02/12 03:44:46;;;;;;;8.35;7.45;;;10.00;81.20;;;;;;4846450;29;20042;-82
2023/02/12 03:47:15;;;;;;;8.75;6.28;;;10.00;81.20;;;;;;4846532;29;20636;-82
2023/02/12 03:50:06;;;;;;;8.48;6.93;;;10.00;81.10;;;;;;4860320;29;20038;-83
2023/02/12 03:52:33;;;;;;;8.95;6.78;;;9.90;81.10;;;;;;4843057;29;20065;-82
2023/02/12 03:54:59;;;;;;;9.15;7.70;;;9.90;81.10;;;;;;4867739;29;20056;-82
2023/02/12 03:57:30;;;;;;;8.93;7.70;;;9.90;81.10;;;;;;4840673;29;20033;-81
2023/02/12 03:59:57;;;;;;;9.52;8.23;;;9.90;81.10;;;;;;4868651;29;20029;-82
2023/02/12 04:02:24;;;;;;;8.77;6.88;;;9.90;81.10;;;;;;4855098;29;20040;-82
2023/02/12 04:04:50;;;;;;;9.10;7.25;;;9.90;81.10;;;;;;4853096;29;20142;-80
2023/02/12 04:07:17;;;;;;;9.63;7.82;;;9.90;81.10;;;;;;4852361;29;20030;-83
2023/02/12 04:09:43;;;;;;;9.48;8.02;;;9.90;81.10;;;;;;4843222;29;20030;-81
2023/02/12 04:12:20;;;;;;;9.00;7.20;;;9.90;81.10;;;;;;4840410;29;20072;-81
2023/02/12 04:14:59;;;;;;;9.52;7.45;;;9.90;81.10;;;;;;4861600;29;20035;-82
2023/02/12 04:17:48;;;;;;;9.32;7.15;;;9.80;81.10;;;;;;4854612;29;20146;-82
2023/02/12 04:20:26;;;;;;;9.02;7.38;;;9.90;81.10;;;;;;4864080;29;20538;-82
2023/02/12 04:23:10;;;;;;;8.55;7.25;;;9.80;81.10;;;;;;4859962;29;20541;-81
2023/02/12 04:26:01;;;;;;;8.63;6.93;;;9.80;81.70;;;;;;4860126;29;20029;-82
2023/02/12 04:29:06;;;;;;;9.15;7.75;;;9.80;81.10;;;;;;4847284;29;20061;-81
2023/02/12 04:32:02;;;;;;;8.25;6.78;;;9.80;81.10;;;;;;4850351;29;20041;-81
2023/02/12 04:34:44;;;;;;;10.00;7.25;;;9.80;81.10;;;;;;4863036;29;20033;-81
2023/02/12 04:37:24;;;;;;;9.25;6.93;;;9.80;81.10;;;;;;4843850;29;20026;-81
2023/02/12 04:39:51;;;;;;;8.27;6.93;;;9.80;81.10;;;;;;4876248;29;20033;-81
2023/02/12 04:42:17;;;;;;;9.30;7.32;;;9.80;81.10;;;;;;4857137;29;20041;-81
2023/02/12 04:44:44;;;;;;;9.65;7.25;;;9.70;81.10;;;;;;4845242;29;20052;-81
2023/02/12 04:47:14;;;;;;;8.10;6.88;;;9.80;81.10;;;;;;4862057;29;20502;-81
2023/02/12 04:49:40;;;;;;;9.43;7.30;;;9.70;81.10;;;;;;4879642;29;20029;-82
2023/02/12 04:52:06;;;;;;;9.32;7.65;;;9.70;81.00;;;;;;4844143;29;20490;-82
2023/02/12 04:54:33;;;;;;;9.88;7.72;;;9.70;81.10;;;;;;4860838;29;20036;-83
2023/02/12 04:56:59;;;;;;;9.20;7.55;;;9.70;81.10;;;;;;4865522;29;20041;-81
2023/02/12 04:59:25;;;;;;;8.98;7.53;;;9.70;81.10;;;;;;4848856;29;20251;-82
2023/02/12 05:01:50;;;;;;;9.40;7.55;;;9.70;81.10;;;;;;4869699;29;20490;-82
2023/02/12 05:04:17;;;;;;;9.20;7.55;;;9.70;81.10;;;;;;4868989;29;20030;-81
2023/02/12 05:06:44;;;;;;;7.88;6.63;;;9.70;81.10;;;;;;4867895;29;20034;-82
2023/02/12 05:09:14;;;;;;;9.93;7.53;;;9.70;81.10;;;;;;4856065;29;20062;-81
2023/02/12 05:11:40;;;;;;;9.43;7.05;;;9.70;81.10;;;;;;4867385;29;20497;-81
2023/02/12 05:14:06;;;;;;;9.35;7.55;;;9.70;81.10;;;;;;4869175;29;20041;-81
2023/02/12 05:16:32;;;;;;;9.20;7.70;;;9.70;81.10;;;;;;4854113;29;20382;-83
2023/02/12 05:18:57;;;;;;;9.85;7.57;;;9.70;81.10;;;;;;4841485;29;20029;-81
2023/02/12 05:21:23;;;;;;;9.20;7.13;;;9.70;81.10;;;;;;4853890;29;20070;-81
2023/02/12 05:23:49;;;;;;;9.30;7.32;;;9.70;81.10;;;;;;4864731;29;20389;-81
2023/02/12 05:26:18;;;;;;;8.95;7.15;;;9.70;81.10;;;;;;4861737;29;20068;-81
2023/02/12 05:28:45;;;;;;;9.00;7.70;;;9.70;81.10;;;;;;4866661;29;20124;-81
2023/02/12 05:31:14;;;;;;;8.20;7.05;;;9.70;81.10;;;;;;4849071;29;20086;-83
2023/02/12 05:33:47;;;;;;;8.40;6.72;;;9.70;81.10;;;;;;4864115;29;20025;-81
2023/02/12 05:36:19;;;;;;;8.30;6.65;;;9.70;81.10;;;;;;4840105;29;20061;-81
2023/02/12 05:38:45;;;;;;;9.00;7.32;;;9.70;81.10;;;;;;4863790;29;20063;-85
2023/02/12 05:41:13;;;;;;;9.18;7.57;;;9.70;81.10;;;;;;4862841;29;20048;-82
2023/02/12 05:43:40;;;;;;;8.32;6.80;;;9.60;81.70;;;;;;4858681;29;20040;-80
2023/02/12 05:46:07;;;;;;;9.90;7.20;;;9.60;81.00;;;;;;4861676;29;20355;-81
2023/02/12 05:48:33;;;;;;;8.90;7.15;;;9.60;81.00;;;;;;4878163;29;20048;-81
2023/02/12 05:51:20;;;;;;;9.85;7.38;;;9.60;81.00;;;;;;4845643;29;20045;-84
2023/02/12 05:53:48;;;;;;;9.50;7.50;;;9.70;81.10;;;;;;4861133;29;20942;-83
2023/02/12 05:56:22;;;;;;;9.27;7.05;;;9.60;81.00;;;;;;4843689;29;20041;-83
2023/02/12 05:58:52;;;;;;;9.05;7.45;;;9.60;81.00;;;;;;4846796;29;20525;-81
2023/02/12 06:01:33;;;;;;;7.90;6.25;;;9.60;81.00;;;;;;4860230;29;20036;-81
2023/02/12 06:04:01;;;;;;;8.55;6.53;;;9.60;81.10;;;;;;4864048;29;20119;-82
2023/02/12 06:06:28;;;;;;;8.38;6.57;;;9.60;81.00;;;;;;4862193;29;20084;-81
2023/02/12 06:08:54;;;;;;;9.70;6.90;;;9.60;81.00;;;;;;4863867;29;20043;-82
2023/02/12 06:11:20;;;;;;;8.75;7.03;;;9.60;81.00;;;;;;4858534;29;20382;-80
2023/02/12 06:13:47;;;;;;;8.55;6.93;;;9.60;81.00;;;;;;4865978;29;20117;-82
2023/02/12 06:16:26;;;;;;;8.18;6.65;;;9.60;81.00;;;;;;4862136;29;20045;-81
2023/02/12 06:18:53;;;;;;;8.23;6.60;;;9.60;81.10;;;;;;4871249;29;20041;-82
2023/02/12 06:21:21;;;;;;;8.45;6.78;;;9.60;81.00;;;;;;4860365;29;20108;-80
2023/02/12 06:23:47;;;;;;;9.15;7.22;;;9.60;81.00;;;;;;4859909;29;20101;-82
2023/02/12 06:26:13;;;;;;;9.70;6.97;;;9.60;81.00;;;;;;4862490;29;20509;-81
2023/02/12 06:28:39;;;;;;;8.70;7.20;;;9.60;81.00;;;;;;4857006;29;20069;-81
2023/02/12 06:31:07;;;;;;;9.10;7.47;;;9.60;81.00;;;;;;4847450;29;20084;-82
2023/02/12 06:33:34;;;;;;;9.98;7.63;;;9.60;81.00;;;;;;4846532;29;20089;-84
2023/02/12 06:36:03;;;;;;;9.13;7.43;;;9.60;81.00;;;;;;4865885;29;20060;-82
2023/02/12 06:38:29;;;;;;;9.30;7.25;;;9.60;81.10;;;;;;4858813;29;20034;-80
2023/02/12 06:40:55;;;;;;;9.60;7.32;;;9.60;81.00;;;;;;4825730;29;20048;-81
2023/02/12 06:43:20;;;;;;;8.43;7.03;;;9.60;81.00;;;;;;4849800;29;20513;-81
2023/02/12 06:45:46;;;;;;;8.93;7.47;;;9.60;81.10;;;;;;4847714;29;20065;-81
2023/02/12 06:48:12;;;;;;;9.05;7.10;;;9.60;81.10;;;;;;4859923;29;20049;-81
2023/02/12 06:50:37;;;;;;;9.45;7.25;;;9.60;81.00;;;;;;4844331;29;20033;-82
2023/02/12 06:53:03;;;;;;;8.55;6.68;;;9.60;81.10;;;;;;4826295;29;20053;-81
2023/02/12 06:55:29;;;;;;;8.60;7.18;;;9.60;81.10;;;;;;4862254;29;20036;-81
2023/02/12 06:57:55;;;;;;;10.50;8.20;;;9.60;81.10;;;;;;4826893;29;20104;-81
2023/02/12 07:00:21;;;;;;;8.52;6.72;;;9.60;81.10;;;;;;4829671;29;20436;-82
2023/02/12 07:02:52;;;;;;;8.52;7.10;;;9.60;81.10;;;;;;4863119;29;20033;-81
2023/02/12 07:05:18;;;;;;;8.98;7.15;;;9.60;81.10;;;;;;4845925;29;20097;-81
2023/02/12 07:07:44;;;;;;;9.70;7.40;;;9.60;81.10;;;;;;4838127;29;20480;-82
2023/02/12 07:10:10;;;;;;;8.73;7.15;;;9.60;81.10;;;;;;4846047;29;20034;-82
2023/02/12 07:12:36;;;;;;;9.23;6.85;;;9.60;81.10;;;;;;4828783;29;20605;-80
2023/02/12 07:15:01;;;;;;;9.07;6.70;;;9.60;81.10;;;;;;4862051;29;20174;-81
2023/02/12 07:17:29;;;;;;;9.20;7.05;;;9.60;81.10;;;;;;4815026;29;20026;-81
2023/02/12 07:19:55;;;;;;;8.50;6.85;;;9.60;81.10;;;;;;4855464;29;20030;-82
2023/02/12 07:22:21;;;;;;;8.95;6.88;;;9.60;81.10;;;;;;4864061;29;20470;-82
2023/02/12 07:24:47;;;;;;;8.10;6.57;;;9.60;81.10;;;;;;4824030;29;20050;-82
2023/02/12 07:27:13;;;;;;;8.23;6.82;;;9.50;81.00;;;;;;4860284;29;20030;-82
2023/02/12 07:29:39;;;;;;;8.85;7.38;;;9.60;81.10;;;;;;4841254;29;20494;-82
2023/02/12 07:32:05;;;;;;;8.43;6.53;;;9.60;81.10;;;;;;4865042;29;20037;-81
2023/02/12 07:34:31;;;;;;;8.70;7.10;;;9.50;81.30;;;;;;4860811;29;20029;-82
2023/02/12 07:36:57;;;;;;;9.07;7.00;;;9.50;81.10;;;;;;4856587;29;20040;-81
2023/02/12 07:39:23;;;;;;;8.68;6.85;;;9.50;81.10;;;;;;4871683;29;20493;-81
2023/02/12 07:41:49;;;;;;;8.27;6.50;;;9.60;81.20;;;;;;4863070;29;20041;-82
2023/02/12 07:44:18;;;;;;;7.70;6.45;;;9.60;81.10;;;;;;4833701;29;20033;-81
2023/02/12 07:46:47;;;;;;;9.70;7.70;;;9.60;81.10;;;;;;4847227;29;20148;-80
2023/02/12 07:49:21;;;;;;;8.45;6.55;;;9.50;81.10;;;;;;4859078;29;20033;-79
2023/02/12 07:51:48;;;;;;;9.07;6.90;;;9.60;81.20;;;;;;4846629;29;20098;-80
2023/02/12 07:54:14;;;;;;;9.77;7.05;;;9.60;81.20;;;;;;4845653;29;20471;-81
2023/02/12 07:56:42;;;;;;;9.30;7.10;;;9.60;81.20;;;;;;4862759;29;20022;-80
2023/02/12 07:59:11;;;;;;;8.57;6.90;;;9.60;81.20;;;;;;4865212;29;20033;-80
2023/02/12 08:01:39;;;;;;;8.52;6.95;;;9.50;81.20;;;;;;4864817;29;20034;-80
2023/02/12 08:04:10;;;;;;;8.50;7.10;;;9.60;81.20;;;;;;4862219;29;20026;-80
2023/02/12 08:06:39;;;;;;;9.00;7.15;;;9.50;81.20;;;;;;4862686;29;20042;-80
2023/02/12 08:09:08;;;;;;;9.10;6.90;;;9.60;81.20;;;;;;4864525;29;20040;-82
2023/02/12 08:11:35;;;;;;;8.75;6.60;;;9.60;81.20;;;;;;4872969;29;20033;-82
2023/02/12 08:14:03;;;;;;;9.35;7.47;;;9.60;81.20;;;;;;4850609;29;20029;-82
2023/02/12 08:16:30;;;;;;;9.32;7.47;;;9.60;81.20;;;;;;4853068;29;20057;-80
2023/02/12 08:18:56;;;;;;;8.63;6.80;;;9.60;81.20;;;;;;4867983;29;20040;-81
2023/02/12 08:21:25;;;;;;;8.77;7.18;;;9.60;81.20;;;;;;4864929;29;20057;-81
2023/02/12 08:23:53;;;;;;;9.07;7.32;;;9.60;81.30;;;;;;4855237;29;20105;-81
2023/02/12 08:26:20;;;;;;;9.30;7.25;;;9.60;81.30;;;;;;4865446;29;20545;-80
2023/02/12 08:28:50;;;;;;;9.18;7.55;;;9.60;81.20;;;;;;4842065;29;20133;-80
2023/02/12 08:31:18;;;;;;;10.43;7.93;;;9.60;81.30;;;;;;4868289;29;20053;-80
2023/02/12 08:33:45;;;;;;;9.80;8.10;;;9.60;81.30;;;;;;4871058;29;20104;-79
2023/02/12 08:36:14;;;;;;;10.20;8.48;;;9.60;81.30;;;;;;4868329;29;20029;-81
2023/02/12 08:38:41;;;;;;;10.45;8.35;;;9.60;81.30;;;;;;4868053;29;20406;-82
2023/02/12 08:41:27;;;;;;;10.52;8.23;;;9.60;81.30;;;;;;4848656;29;20513;-81
2023/02/12 08:43:57;;;;;;;11.20;8.77;;;9.60;81.20;;;;;;4847020;29;20475;-82
2023/02/12 08:46:35;;;;;;;11.18;8.55;;;9.60;81.20;;;;;;4861909;29;20033;-82
2023/02/12 08:49:04;;;;;;;11.13;8.57;;;9.60;81.30;;;;;;4862179;29;20034;-80
2023/02/12 08:51:34;;;;;;;11.27;9.07;;;9.60;81.30;;;;;;4861463;29;20044;-81
2023/02/12 08:54:02;;;;;;;11.32;8.88;;;9.60;81.20;;;;;;4863453;29;20032;-84
2023/02/12 08:56:30;;;;;;;11.43;9.32;;;9.70;81.30;;;;;;4861995;29;20033;-81
2023/02/12 08:58:57;;;;;;;11.55;9.30;;;9.70;81.30;;;;;;4862151;29;20126;-83
2023/02/12 09:01:26;;;;;;;11.85;9.15;;;9.70;81.30;;;;;;4864670;29;20045;-83
2023/02/12 09:03:52;;;;;;;10.88;8.65;;;9.70;81.40;;;;;;4861734;29;20115;-83
2023/02/12 09:06:20;;;;;;;11.15;9.35;;;9.70;81.40;;;;;;4861263;29;20029;-80
2023/02/12 09:08:47;;;;;;;12.13;9.48;;;9.70;81.40;;;;;;4860613;29;20090;-81
2023/02/12 09:11:31;;;;;;;11.95;9.65;;;9.70;81.30;;;;;;4847268;29;20041;-83
2023/02/12 09:14:02;;;;;;;11.60;9.55;;;9.70;81.40;;;;;;4861269;29;20040;-82
2023/02/12 09:16:29;;;;;;;11.63;9.07;;;9.70;81.30;;;;;;4858228;29;20032;-83
2023/02/12 09:18:56;;;;;;;11.82;9.57;;;9.70;81.30;;;;;;4860531;29;20026;-81
2023/02/12 09:21:22;;;;;;;12.40;9.85;;;9.70;81.30;;;;;;4860012;29;20041;-81
2023/02/12 09:23:48;;;;;;;12.15;9.75;;;9.70;81.90;;;;;;4862336;29;20091;-81
2023/02/12 09:26:19;;;;;;;11.38;8.77;;;9.80;81.30;;;;;;4846881;29;20039;-80
2023/02/12 09:28:46;;;;;;;11.90;9.65;;;9.80;81.30;;;;;;4845715;29;20053;-81
2023/02/12 09:31:14;;;;;;;12.35;9.48;;;9.80;81.30;;;;;;4861285;29;20041;-84
2023/02/12 09:33:41;;;;;;;12.73;9.35;;;9.80;81.30;;;;;;4845218;29;20029;-81
2023/02/12 09:36:10;;;;;;;11.52;9.77;;;9.80;81.20;;;;;;4863445;29;20025;-82
2023/02/12 09:38:38;;;;;;;12.50;10.02;;;9.80;81.20;;;;;;4858720;29;20033;-81
2023/02/12 09:41:42;;;;;;;13.45;10.00;;;9.80;81.20;;;;;;4845954;29;20029;-82
2023/02/12 09:44:38;;;;;;;13.25;10.40;;;9.80;81.30;;;;;;4846220;29;20034;-86
2023/02/12 09:47:16;;;;;;;13.07;9.65;;;9.90;81.20;;;;;;4862067;29;20033;-80
2023/02/12 09:50:17;;;;;;;11.75;8.93;;;9.80;81.20;;;;;;4876783;29;20033;-84
2023/02/12 09:52:43;;;;;;;14.93;10.32;;;9.80;81.20;;;;;;4863980;29;20029;-80
2023/02/12 09:55:15;;;;;;;13.07;10.13;;;9.90;81.20;;;;;;4862830;29;20038;-81
2023/02/12 09:57:42;;;;;;;12.10;10.05;;;9.90;81.20;;;;;;4854741;29;20522;-81
2023/02/12 10:00:15;;;;;;;13.80;10.40;;;9.80;81.20;;;;;;4857258;29;20029;-81
2023/02/12 10:02:41;;;;;;;11.93;9.63;;;9.90;81.30;;;;;;4862018;29;20043;-82
2023/02/12 10:05:21;;;;;;;13.40;10.00;;;9.90;81.20;;;;;;4863990;29;20936;-85
2023/02/12 10:08:09;;;;;;;12.50;9.98;;;9.90;81.30;;;;;;4859919;29;20045;-82
2023/02/12 10:10:47;;;;;;;12.32;9.82;;;9.90;81.30;;;;;;4859665;29;20041;-81
2023/02/12 10:13:43;;;;;;;13.30;10.38;;;9.90;81.30;;;;;;4859344;29;20036;-81
2023/02/12 10:16:13;;;;;;;11.70;9.43;;;9.90;81.20;;;;;;4842971;29;20129;-81
2023/02/12 10:18:39;;;;;;;13.20;9.93;;;9.90;81.20;;;;;;4861500;29;20589;-81
2023/02/12 10:21:31;;;;;;;13.30;10.73;;;10.00;81.20;;;;;;4859726;29;20124;-81
2023/02/12 10:24:31;;;;;;;13.95;10.75;;;10.00;81.30;;;;;;4873429;29;20044;-82
2023/02/12 10:27:02;;;;;;;12.77;10.25;;;10.00;81.30;;;;;;4845897;29;20699;-81
2023/02/12 10:29:32;;;;;;;13.32;10.45;;;10.00;81.20;;;;;;4861213;29;20042;-82
2023/02/12 10:32:04;;;;;;;13.07;10.45;;;10.00;81.20;;;;;;4861286;29;20463;-82
2023/02/12 10:34:33;;;;;;;13.65;10.30;;;10.00;81.20;;;;;;4858009;29;20120;-81
2023/02/12 10:37:11;;;;;;;13.85;10.90;;;10.00;81.20;;;;;;4859267;29;20065;-82
2023/02/12 10:39:42;;;;;;;13.00;10.10;;;10.10;81.20;;;;;;4861598;29;20041;-81
2023/02/12 10:42:18;;;;;;;12.85;10.30;;;10.10;81.20;;;;;;4862053;29;20189;-81
2023/02/12 10:44:45;;;;;;;12.80;9.90;;;10.10;81.20;;;;;;4853112;29;20084;-81
2023/02/12 10:47:19;;;;;;;13.93;10.40;;;10.10;81.20;;;;;;4860303;29;20034;-80
2023/02/12 10:49:51;;;;;;;12.30;10.27;;;10.20;81.20;;;;;;4864907;29;20119;-81
2023/02/12 10:52:29;;;;;;;12.93;9.80;;;10.20;81.20;;;;;;4860119;29;20298;-82
2023/02/12 10:54:55;;;;;;;11.98;9.18;;;10.20;81.20;;;;;;4862355;29;20111;-81
2023/02/12 10:57:24;;;;;;;12.90;10.02;;;10.20;81.10;;;;;;4860823;29;20128;-83
2023/02/12 10:59:53;;;;;;;13.38;10.45;;;10.20;81.10;;;;;;4864283;29;20121;-80
2023/02/12 11:02:24;;;;;;;13.02;10.30;;;10.20;81.10;;;;;;4853133;29;20088;-81
2023/02/12 11:04:51;;;;;;;12.48;9.80;;;10.20;81.10;;;;;;4862791;29;20049;-81
2023/02/12 11:07:18;;;;;;;12.98;10.02;;;10.30;81.10;;;;;;4850018;29;20037;-83
2023/02/12 11:09:46;;;;;;;12.30;9.55;;;10.30;81.10;;;;;;4856459;29;20120;-82
2023/02/12 11:12:32;;;;;;;12.23;9.52;;;10.30;81.10;;;;;;4853654;29;20590;-82
2023/02/12 11:15:11;;;;;;;12.95;10.02;;;10.30;81.20;;;;;;4862005;29;20032;-82
2023/02/12 11:17:43;;;;;;;12.95;9.55;;;10.30;81.10;;;;;;4852417;29;20051;-82
2023/02/12 11:20:15;;;;;;;12.70;9.75;;;10.30;81.20;;;;;;4845909;29;20029;-82
2023/02/12 11:22:52;;;;;;;13.13;9.63;;;10.30;81.10;;;;;;4857521;29;20045;-83
2023/02/12 11:25:19;;;;;;;13.40;10.00;;;10.40;81.20;;;;;;4859093;29;20051;-83
2023/02/12 11:27:57;;;;;;;12.55;9.32;;;10.30;81.10;;;;;;4860259;29;20508;-82
2023/02/12 11:30:23;;;;;;;11.60;9.07;;;10.40;81.10;;;;;;4861521;29;20061;-81
2023/02/12 11:32:50;;;;;;;11.70;9.00;;;10.30;81.00;;;;;;4858011;29;20048;-82
2023/02/12 11:35:27;;;;;;;12.85;9.93;;;10.40;81.10;;;;;;4857470;29;20112;-82
2023/02/12 11:38:02;;;;;;;11.88;8.73;;;10.40;81.10;;;;;;4854459;29;20034;-82
2023/02/12 11:40:32;;;;;;;12.95;9.80;;;10.40;81.10;;;;;;4855899;29;20471;-83
2023/02/12 11:43:04;;;;;;;11.90;8.98;;;10.40;81.10;;;;;;4868620;29;20036;-82
2023/02/12 11:45:46;;;;;;;11.85;8.50;;;10.40;81.10;;;;;;4864702;29;20026;-81
2023/02/12 11:48:26;;;;;;;11.27;8.40;;;10.40;81.10;;;;;;4861673;29;20142;-81
2023/02/12 11:50:55;;;;;;;11.63;9.13;;;10.50;81.20;;;;;;4860588;29;20037;-81
2023/02/12 11:53:34;;;;;;;11.98;9.15;;;10.50;81.10;;;;;;4862527;29;20038;-82
2023/02/12 11:56:07;;;;;;;11.32;8.27;;;10.50;81.20;;;;;;4864548;29;20095;-82
2023/02/12 11:58:33;;;;;;;12.70;8.57;;;10.50;81.10;;;;;;4865700;29;20058;-81
2023/02/12 12:01:09;;;;;;;12.25;8.85;;;10.50;81.20;;;;;;4869668;29;20025;-82
2023/02/12 12:03:57;;;;;;;12.90;9.13;;;10.60;81.20;;;;;;4870011;29;20074;-82
2023/02/12 12:06:36;;;;;;;11.98;8.60;;;10.60;81.10;;;;;;4855954;29;20045;-83
2023/02/12 12:09:36;;;;;;;12.05;8.85;;;10.60;81.00;;;;;;4866932;29;20044;-82
2023/02/12 12:12:20;;;;;;;11.43;8.25;;;10.60;81.00;;;;;;4882352;29;20139;-82
2023/02/12 12:21:10;;;;;;;10.75;8.18;;;10.70;81.00;;;;;;4872365;29;20518;-81
2023/02/12 12:23:42;;;;;;;11.38;8.30;;;10.70;81.00;;;;;;4847913;29;20100;-81
2023/02/12 12:26:15;;;;;;;12.63;8.68;;;10.70;81.00;;;;;;4870470;29;20474;-81
2023/02/12 12:28:50;;;;;;;12.30;8.23;;;10.70;81.00;;;;;;4870408;29;20490;-82
2023/02/12 12:31:29;;;;;;;12.60;8.77;;;10.70;81.00;;;;;;4867766;29;20147;-81
2023/02/12 12:34:16;;;;;;;13.15;8.80;;;10.70;81.00;;;;;;4867989;29;20041;-82
2023/02/12 12:37:01;;;;;;;11.88;8.13;;;10.80;81.00;;;;;;4869087;29;20036;-83
2023/02/12 12:39:49;;;;;;;10.95;8.02;;;10.80;80.90;;;;;;4886536;29;20040;-82
2023/02/12 12:43:00;;;;;;;13.50;9.65;;;10.80;81.00;;;;;;4882667;29;20124;-83
2023/02/12 12:45:46;;;;;;;11.95;7.85;;;10.80;81.00;;;;;;4830138;29;20045;-82
2023/02/12 12:48:34;;;;;;;11.30;8.02;;;10.90;81.00;;;;;;4855842;29;20493;-82
2023/02/12 12:51:18;;;;;;;13.45;9.07;;;10.90;81.00;;;;;;4869847;29;20053;-81
2023/02/12 12:53:54;;;;;;;12.30;8.02;;;10.90;80.90;;;;;;4845520;29;20492;-83
2023/02/12 12:56:49;;;;;;;11.43;7.82;;;10.90;80.90;;;;;;4863628;29;20033;-82
2023/02/12 12:59:36;;;;;;;12.20;8.80;;;11.00;81.00;;;;;;4865137;29;20837;-82
2023/02/12 13:02:23;;;;;;;10.65;7.95;;;11.00;80.90;;;;;;4877151;29;20041;-82
2023/02/12 13:05:07;;;;;;;10.13;7.65;;;11.00;80.90;;;;;;4871252;29;20029;-82
2023/02/12 13:07:49;;;;;;;12.07;8.65;;;11.00;80.80;;;;;;4863571;29;20062;-81
2023/02/12 13:10:30;;;;;;;10.65;7.72;;;11.10;80.90;;;;;;4872131;29;20033;-82
2023/02/12 13:13:22;;;;;;;12.90;8.32;;;11.10;80.80;;;;;;4856358;29;20052;-83
2023/02/12 13:16:23;;;;;;;11.70;8.32;;;11.10;80.80;;;;;;4868184;29;20038;-83
2023/02/12 13:19:02;;;;;;;10.80;7.80;;;11.10;80.90;;;;;;4844188;29;20501;-82
2023/02/12 13:21:46;;;;;;;11.05;7.70;;;11.10;80.80;;;;;;4869511;29;20101;-81
2023/02/12 13:24:23;;;;;;;11.63;7.72;;;11.10;80.80;;;;;;4866657;29;20450;-80